San Diego, California
Current Conditions -  °F | °C
As of 1:51 PM on Friday 31 Oct 2014 (Local Time) from KSAN Reporting Station
Broken Clouds Broken Clouds  
Wind Chill: 71°   Ceiling: 4700
Heat Index: 71°   Visibility: 10mi
Dew Point: 58°   Wind: 7mph
Humidity: 63%   Direction: 300°WNW
Pressure: 29.91"   Gusts: NA
Location:  32.72°N, 117.16°W
Report Text: KSAN 312051Z 30006KT 10SM FEW026 SCT032 BKN047 22/14 A2991 RMK AO2 SLP127 T02170144 57024
Loading
Personal Weather Stations






























Interactive Weather Map
Tropical Storm Tracking
New forecast layout! Learn more

10-Day Weather Forecast

Advertisements
Track Severe Weather on mobile